Time;durP1;ratioP1;P1;durP2;ratioP2;P2;SDS_P1;SDS_P2;PMS_P1;PMS_P2;Temp;Humidity;BMP_temperature;BMP_pressure;BME280_temperature;BME280_humidity;BME280_pressure;Samples;Min_cycle;Max_cycle;Signal;HPM_P1;HPM_P2
2021/10/11 00:01:47;;;;;;;100.25;54.20;;;9.20;99.90;;;10.30;100.00;101427.31;6101140;23;20003;-82
2021/10/11 00:04:15;;;;;;;97.93;51.25;;;9.20;99.90;;;10.28;100.00;101426.81;6100949;23;20007;-81
2021/10/11 00:06:41;;;;;;;107.15;51.97;;;9.20;99.90;;;10.25;100.00;101417.13;6074880;23;20011;-84
2021/10/11 00:09:07;;;;;;;92.63;49.75;;;9.20;99.90;;;10.23;100.00;101427.84;6075320;23;20013;-82
2021/10/11 00:11:36;;;;;;;87.35;48.20;;;9.10;99.90;;;10.16;100.00;101430.34;6075473;23;20081;-84
2021/10/11 00:14:03;;;;;;;93.63;47.97;;;9.00;99.90;;;10.08;100.00;101433.97;6100111;23;20070;-83
2021/10/11 00:16:30;;;;;;;92.78;48.85;;;9.00;99.90;;;9.98;100.00;101437.97;6074192;23;20018;-87
2021/10/11 00:18:56;;;;;;;87.40;46.97;;;8.90;99.90;;;9.96;100.00;101445.81;6073899;23;20523;-87
2021/10/11 00:21:23;;;;;;;89.38;47.63;;;8.90;99.90;;;9.93;100.00;101448.47;6074510;23;20039;-85
2021/10/11 00:23:49;;;;;;;96.13;49.50;;;8.80;99.90;;;9.97;100.00;101443.84;6098842;23;20021;-87
2021/10/11 00:26:15;;;;;;;92.60;49.85;;;8.80;99.90;;;10.05;100.00;101445.78;6074273;23;20022;-86
2021/10/11 00:28:44;;;;;;;95.13;48.38;;;8.90;99.90;;;10.11;100.00;101440.84;6073659;23;20006;-86
2021/10/11 00:31:16;;;;;;;80.43;44.25;;;9.00;99.90;;;10.20;100.00;101441.66;6075718;23;20011;-87
2021/10/11 00:33:42;;;;;;;89.75;48.53;;;9.00;99.90;;;10.26;100.00;101445.88;6076190;23;20396;-87
2021/10/11 00:36:08;;;;;;;86.22;47.50;;;9.10;99.90;;;10.34;100.00;101450.63;6075659;23;20015;-86
2021/10/11 00:38:34;;;;;;;86.93;47.80;;;9.20;99.90;;;10.40;100.00;101441.69;6076466;23;20038;-86
2021/10/11 00:41:01;;;;;;;94.05;50.17;;;9.20;99.90;;;10.45;100.00;101440.69;6076180;23;20467;-88
2021/10/11 00:43:27;;;;;;;90.75;48.22;;;9.30;99.90;;;10.46;100.00;101445.13;6075943;23;20452;-88
2021/10/11 00:45:59;;;;;;;94.07;49.20;;;9.30;99.90;;;10.48;100.00;101443.63;6076532;23;20101;-89
2021/10/11 00:48:25;;;;;;;112.07;57.17;;;9.30;99.90;;;10.54;100.00;101439.47;6075433;23;20006;-88
2021/10/11 00:50:54;;;;;;;113.50;55.92;;;9.40;99.90;;;10.65;100.00;101437.09;6075644;23;20017;-86
2021/10/11 00:53:20;;;;;;;112.93;56.47;;;9.50;99.90;;;10.72;100.00;101433.75;6075802;23;20014;-89
2021/10/11 00:55:49;;;;;;;111.40;56.03;;;9.50;99.90;;;10.82;100.00;101430.56;6099421;23;20037;-86
2021/10/11 00:58:17;;;;;;;114.40;59.30;;;9.60;99.90;;;10.88;100.00;101432.81;6076113;23;20078;-87
2021/10/11 01:00:47;;;;;;;109.43;58.45;;;9.70;99.90;;;10.98;100.00;101432.38;6075322;23;20015;-87
2021/10/11 01:03:16;;;;;;;117.00;60.40;;;9.80;99.90;;;10.97;100.00;101432.75;6075324;23;20029;-87
2021/10/11 01:05:42;;;;;;;115.10;60.83;;;9.80;99.90;;;10.96;100.00;101429.13;6075649;23;20017;-87
2021/10/11 01:08:08;;;;;;;117.32;59.08;;;9.90;99.90;;;11.08;100.00;101428.34;6075713;23;20025;-85
2021/10/11 01:10:35;;;;;;;121.18;62.03;;;9.90;99.90;;;11.17;100.00;101412.34;6100191;23;20007;-88
2021/10/11 01:13:04;;;;;;;126.93;63.47;;;10.00;99.90;;;11.24;100.00;101426.56;6075758;23;20010;-88
2021/10/11 01:15:32;;;;;;;129.95;66.93;;;10.00;99.90;;;11.26;100.00;101427.03;6075559;23;20034;-87
2021/10/11 01:17:57;;;;;;;123.60;64.80;;;10.10;99.90;;;11.38;100.00;101431.84;6076485;23;20022;-88
2021/10/11 01:20:23;;;;;;;120.80;63.05;;;10.20;99.90;;;11.45;100.00;101423.72;6075667;23;20033;-87
2021/10/11 01:22:49;;;;;;;132.05;65.38;;;10.30;99.90;;;11.47;100.00;101429.78;6076874;23;20014;-87
2021/10/11 01:25:16;;;;;;;117.30;62.22;;;10.30;99.90;;;11.54;100.00;101432.84;6076840;23;20010;-87
2021/10/11 01:27:46;;;;;;;115.75;61.03;;;10.40;99.90;;;11.60;100.00;101437.88;6076385;23;20011;-86
2021/10/11 01:30:15;;;;;;;125.45;64.72;;;10.40;99.90;;;11.58;100.00;101433.78;6103189;23;20009;-89
2021/10/11 01:32:46;;;;;;;122.50;63.17;;;10.40;99.90;;;11.63;100.00;101442.75;6077192;23;20042;-87
2021/10/11 01:35:15;;;;;;;115.68;62.67;;;10.40;99.90;;;11.70;100.00;101439.44;6077259;23;20030;-91
2021/10/11 01:37:47;;;;;;;114.43;61.17;;;10.50;99.90;;;11.73;100.00;101437.91;6102291;23;20017;-87
2021/10/11 01:40:20;;;;;;;110.05;61.10;;;10.50;99.90;;;11.72;100.00;101434.28;6101510;23;20022;-90
2021/10/11 01:42:47;;;;;;;118.40;63.38;;;10.50;99.90;;;11.70;100.00;101436.63;6088157;23;20021;-86
2021/10/11 01:45:16;;;;;;;116.80;61.47;;;10.60;99.90;;;11.73;100.00;101427.53;6095379;23;20041;-87
2021/10/11 01:47:42;;;;;;;111.22;61.85;;;10.60;99.90;;;11.79;100.00;101428.94;6120559;23;20033;-83
2021/10/11 01:50:09;;;;;;;118.07;63.03;;;10.60;99.90;;;11.75;100.00;101422.41;6088243;23;20015;-86
2021/10/11 01:52:40;;;;;;;112.78;62.72;;;10.60;99.90;;;11.84;100.00;101431.53;6075111;23;20014;-86
2021/10/11 01:55:08;;;;;;;119.82;60.53;;;10.60;99.90;;;11.88;100.00;101429.66;6084149;23;20026;-86
2021/10/11 01:57:34;;;;;;;114.90;62.97;;;10.70;99.90;;;11.86;100.00;101418.00;6096856;23;20018;-84
2021/10/11 02:00:00;;;;;;;119.43;63.25;;;10.70;99.90;;;11.87;100.00;101410.44;6108255;23;20007;-85
2021/10/11 02:02:29;;;;;;;111.53;61.78;;;10.70;99.90;;;11.94;100.00;101414.28;6075798;23;20006;-86
2021/10/11 02:04:58;;;;;;;113.40;61.25;;;10.70;99.90;;;11.96;100.00;101420.34;6074895;23;20057;-86
2021/10/11 02:07:24;;;;;;;122.28;64.28;;;10.70;99.90;;;11.98;100.00;101414.38;6075648;23;20089;-86
2021/10/11 02:09:50;;;;;;;111.55;60.67;;;10.80;99.90;;;11.99;100.00;101404.81;6074389;23;20002;-88
2021/10/11 02:12:16;;;;;;;110.68;58.15;;;10.80;99.90;;;12.03;100.00;101417.78;6074663;23;20358;-87
2021/10/11 02:14:42;;;;;;;112.55;59.75;;;10.80;99.90;;;12.03;100.00;101405.78;6075539;23;20042;-88
2021/10/11 02:17:08;;;;;;;114.55;62.15;;;10.90;99.90;;;12.00;100.00;101395.28;6074504;23;20014;-84
2021/10/11 02:19:34;;;;;;;114.15;62.08;;;10.80;99.90;;;11.94;100.00;101399.47;6075603;23;20018;-88
2021/10/11 02:22:03;;;;;;;108.90;59.88;;;10.80;99.90;;;11.99;100.00;101399.22;6074831;23;20017;-88
2021/10/11 02:24:29;;;;;;;117.00;59.75;;;10.80;99.90;;;12.06;100.00;101399.47;6075183;23;20017;-86
2021/10/11 02:26:55;;;;;;;111.95;60.45;;;10.90;99.90;;;12.05;100.00;101397.81;6099303;23;20038;-86
2021/10/11 02:29:25;;;;;;;109.07;59.03;;;10.80;99.90;;;12.06;100.00;101394.69;6074061;23;20070;-86
2021/10/11 02:31:51;;;;;;;117.40;62.10;;;10.80;99.90;;;12.05;100.00;101407.03;6075422;23;20396;-87
2021/10/11 02:34:17;;;;;;;120.07;64.10;;;10.90;99.90;;;12.03;100.00;101403.78;6074267;23;20010;-86
2021/10/11 02:36:46;;;;;;;110.00;60.58;;;10.80;99.90;;;12.02;100.00;101407.75;6074475;23;20003;-86
2021/10/11 02:39:12;;;;;;;115.85;61.80;;;10.80;99.90;;;12.03;100.00;101405.78;6075012;23;20013;-88
2021/10/11 02:41:39;;;;;;;123.07;63.15;;;10.80;99.90;;;11.98;100.00;101404.00;6074275;23;20015;-86
2021/10/11 02:44:05;;;;;;;121.57;63.35;;;10.80;99.90;;;12.00;100.00;101406.47;6099999;23;20026;-85
2021/10/11 02:46:31;;;;;;;115.30;62.67;;;10.80;99.90;;;11.96;100.00;101400.75;6074756;23;20023;-85
2021/10/11 02:49:01;;;;;;;117.57;62.72;;;10.80;99.90;;;11.95;100.00;101401.91;6075271;23;20018;-84
2021/10/11 02:51:27;;;;;;;112.80;61.22;;;10.80;99.90;;;11.98;100.00;101411.59;6114103;23;20006;-84
2021/10/11 02:53:56;;;;;;;126.07;62.63;;;10.80;99.90;;;11.98;100.00;101409.59;6080569;23;20459;-86
2021/10/11 02:56:22;;;;;;;117.57;59.28;;;10.80;99.90;;;11.99;100.00;101407.63;6074342;23;20010;-87
2021/10/11 02:58:47;;;;;;;113.88;59.53;;;10.80;99.90;;;11.93;100.00;101397.81;6074262;23;20014;-85
2021/10/11 03:01:17;;;;;;;120.50;62.75;;;10.80;99.90;;;11.98;100.00;101409.59;6101255;23;20006;-87
2021/10/11 03:03:42;;;;;;;118.50;61.00;;;10.80;99.90;;;11.97;100.00;101418.38;6075933;23;20069;-85
2021/10/11 03:06:08;;;;;;;116.28;61.33;;;10.80;99.90;;;11.97;100.00;101410.78;6074224;23;20015;-84
2021/10/11 03:08:36;;;;;;;119.40;60.97;;;10.70;99.90;;;11.92;100.00;101410.19;6075441;23;20034;-84
2021/10/11 03:11:04;;;;;;;116.53;57.70;;;10.80;99.90;;;11.99;100.00;101404.81;6074779;23;20007;-86
2021/10/11 03:13:33;;;;;;;106.88;55.67;;;10.80;99.90;;;12.02;100.00;101413.34;6074027;23;20018;-86
2021/10/11 03:15:59;;;;;;;104.55;55.28;;;10.80;99.90;;;12.04;100.00;101418.63;6074763;23;20030;-85
2021/10/11 03:18:25;;;;;;;93.68;51.67;;;10.80;99.90;;;12.05;100.00;101412.66;6074473;23;20022;-85
2021/10/11 03:20:54;;;;;;;97.28;51.58;;;10.90;99.90;;;12.10;100.00;101414.41;6075654;23;20014;-84
2021/10/11 03:23:20;;;;;;;101.15;52.42;;;10.90;99.90;;;12.10;100.00;101415.19;6075196;23;20033;-85
2021/10/11 03:25:52;;;;;;;91.07;50.13;;;10.90;99.90;;;12.12;100.00;101421.28;6075463;23;20011;-85
2021/10/11 03:28:21;;;;;;;92.60;47.08;;;10.90;99.90;;;12.13;100.00;101413.72;6076616;23;20014;-84
2021/10/11 03:30:47;;;;;;;95.38;48.70;;;10.90;99.90;;;12.15;100.00;101411.34;6077504;23;20006;-84
2021/10/11 03:33:16;;;;;;;105.35;52.53;;;10.90;99.90;;;12.11;100.00;101414.03;6077025;23;20021;-85
2021/10/11 03:35:47;;;;;;;90.03;47.95;;;10.90;99.90;;;12.15;100.00;101403.78;6099915;23;20009;-86
2021/10/11 03:38:13;;;;;;;100.97;51.97;;;10.90;99.90;;;12.17;100.00;101414.63;6099735;23;20034;-83
2021/10/11 03:40:39;;;;;;;95.93;48.78;;;11.00;99.90;;;12.20;100.00;101407.53;6074589;23;20018;-84
2021/10/11 03:43:05;;;;;;;86.32;44.35;;;11.00;99.90;;;12.20;100.00;101402.72;6075236;23;20494;-85
2021/10/11 03:45:36;;;;;;;85.85;43.08;;;11.00;99.90;;;12.23;100.00;101407.63;6076198;23;20401;-83
2021/10/11 03:48:03;;;;;;;79.80;42.33;;;11.00;99.90;;;12.24;100.00;101414.84;6076033;23;20010;-84
2021/10/11 03:50:29;;;;;;;83.28;40.78;;;11.00;99.90;;;12.30;100.00;101418.22;6076470;23;20030;-83
2021/10/11 03:52:55;;;;;;;74.35;39.38;;;11.00;99.90;;;12.31;100.00;101414.25;6076693;23;20021;-83
2021/10/11 03:55:21;;;;;;;85.85;43.15;;;11.10;99.90;;;12.38;100.00;101415.31;6099350;23;20022;-82
2021/10/11 03:57:47;;;;;;;80.35;39.05;;;11.00;99.90;;;12.40;100.00;101414.94;6075153;23;20010;-84
2021/10/11 04:00:16;;;;;;;73.55;37.50;;;11.00;99.90;;;12.40;100.00;101415.78;6075166;23;20017;-85
2021/10/11 04:02:43;;;;;;;71.80;37.10;;;11.00;99.90;;;12.43;100.00;101409.47;6098913;23;20348;-83
2021/10/11 04:05:10;;;;;;;73.93;37.70;;;11.10;99.90;;;12.44;100.00;101396.28;6100419;23;20013;-85
2021/10/11 04:07:39;;;;;;;79.30;38.85;;;11.10;99.90;;;12.47;100.00;101389.97;6077492;23;20042;-83
2021/10/11 04:10:07;;;;;;;80.18;39.20;;;11.10;99.90;;;12.45;100.00;101386.72;6076189;23;20317;-85
2021/10/11 04:12:34;;;;;;;68.18;35.50;;;11.10;99.90;;;12.49;100.00;101387.66;6075819;23;20021;-83
2021/10/11 04:15:07;;;;;;;67.88;34.45;;;11.10;99.90;;;12.51;100.00;101385.28;6076678;23;20395;-82
2021/10/11 04:17:39;;;;;;;72.90;35.72;;;11.10;99.90;;;12.53;100.00;101380.13;6076566;23;20026;-84
2021/10/11 04:20:08;;;;;;;75.88;35.55;;;11.10;99.90;;;12.53;100.00;101385.75;6101790;23;20014;-83
2021/10/11 04:22:35;;;;;;;70.20;32.70;;;11.20;99.90;;;12.52;100.00;101386.94;6078538;23;20002;-84
2021/10/11 04:25:01;;;;;;;75.90;33.45;;;11.20;99.90;;;12.52;100.00;101392.53;6077722;23;20455;-85
2021/10/11 04:27:27;;;;;;;80.72;36.58;;;11.10;99.90;;;12.49;100.00;101393.25;6101358;23;20014;-83
2021/10/11 04:29:52;;;;;;;72.90;35.17;;;11.10;99.90;;;12.53;100.00;101391.34;6100061;23;20006;-82
2021/10/11 04:32:18;;;;;;;75.47;35.75;;;11.20;99.90;;;12.51;100.00;101396.50;6074858;23;20519;-82
2021/10/11 04:34:47;;;;;;;78.30;35.05;;;11.20;99.90;;;12.54;100.00;101395.78;6075940;23;20333;-84
2021/10/11 04:37:13;;;;;;;76.40;36.80;;;11.20;99.90;;;12.49;100.00;101391.25;6074980;23;20097;-84
2021/10/11 04:39:39;;;;;;;67.78;33.05;;;11.20;99.90;;;12.50;100.00;101389.25;6099507;23;20093;-83
2021/10/11 04:42:05;;;;;;;66.88;33.60;;;11.10;99.90;;;12.51;100.00;101402.94;6099991;23;20011;-84
2021/10/11 04:44:31;;;;;;;66.53;32.00;;;11.20;99.90;;;12.51;100.00;101402.09;6077794;23;20061;-84
2021/10/11 04:46:57;;;;;;;77.95;36.95;;;11.10;99.90;;;12.53;100.00;101403.38;6077030;23;20095;-81
2021/10/11 04:49:23;;;;;;;69.63;36.08;;;11.20;99.90;;;12.56;100.00;101405.47;6077206;23;20006;-83
2021/10/11 04:51:49;;;;;;;68.70;34.00;;;11.10;99.90;;;12.56;100.00;101411.06;6076199;23;20006;-82
2021/10/11 04:54:15;;;;;;;75.30;36.17;;;11.20;99.90;;;12.53;100.00;101405.34;6098736;23;20506;-83
2021/10/11 04:56:42;;;;;;;74.43;35.45;;;11.20;99.90;;;12.55;100.00;101406.63;6101180;23;20007;-87
2021/10/11 04:59:10;;;;;;;73.15;35.05;;;11.20;99.90;;;12.54;100.00;101396.63;6075754;23;20078;-83
2021/10/11 05:01:36;;;;;;;77.95;36.22;;;11.20;99.90;;;12.52;100.00;101401.75;6077153;23;20085;-84
2021/10/11 05:04:09;;;;;;;71.03;35.42;;;11.20;99.90;;;12.52;100.00;101417.75;6075453;23;20006;-87
2021/10/11 05:06:41;;;;;;;74.10;35.95;;;11.20;99.90;;;12.50;100.00;101406.06;6075569;23;20408;-84
2021/10/11 05:09:07;;;;;;;73.35;35.35;;;11.20;99.90;;;12.48;100.00;101409.25;6100983;23;20014;-85
2021/10/11 05:11:33;;;;;;;80.60;36.58;;;11.20;99.90;;;12.51;100.00;101413.31;6076168;23;20401;-85
2021/10/11 05:13:58;;;;;;;75.20;34.60;;;11.20;99.90;;;12.49;100.00;101410.06;6075102;23;20014;-86
2021/10/11 05:16:26;;;;;;;77.03;35.97;;;11.20;99.90;;;12.47;100.00;101415.19;6077465;23;20012;-85
2021/10/11 05:18:52;;;;;;;73.20;35.05;;;11.20;99.90;;;12.51;100.00;101427.31;6077231;23;20010;-84
2021/10/11 05:21:18;;;;;;;70.30;35.15;;;11.20;99.90;;;12.48;100.00;101414.84;6075814;23;20011;-85
2021/10/11 05:23:44;;;;;;;76.00;35.53;;;11.20;99.90;;;12.54;100.00;101429.41;6076010;23;20094;-83
2021/10/11 05:26:16;;;;;;;77.18;35.55;;;11.10;99.90;;;12.54;100.00;101421.00;6099947;23;20025;-84
2021/10/11 05:28:42;;;;;;;83.65;36.63;;;11.20;99.90;;;12.55;100.00;101425.47;6076223;23;20006;-86
2021/10/11 05:31:08;;;;;;;82.72;36.33;;;11.20;99.90;;;12.53;100.00;101419.38;6079930;23;20013;-83
2021/10/11 05:33:37;;;;;;;74.03;32.35;;;11.20;99.90;;;12.55;100.00;101428.25;6114905;23;20011;-86
2021/10/11 05:36:04;;;;;;;79.97;32.70;;;11.20;99.90;;;12.55;100.00;101422.66;6115850;23;20014;-83
2021/10/11 05:38:33;;;;;;;66.10;30.58;;;11.20;99.90;;;12.54;100.00;101435.03;6101205;23;20006;-84
2021/10/11 05:41:01;;;;;;;63.53;31.92;;;11.20;99.90;;;12.54;100.00;101432.22;6100578;23;20015;-84
2021/10/11 05:43:28;;;;;;;63.60;29.60;;;11.20;99.90;;;12.55;100.00;101431.84;6076865;23;20006;-83
2021/10/11 05:45:55;;;;;;;66.95;31.77;;;11.20;99.90;;;12.53;100.00;101437.00;6077618;23;20036;-86
2021/10/11 05:48:21;;;;;;;65.18;32.22;;;11.20;99.90;;;12.53;100.00;101441.78;6102557;23;20007;-84
2021/10/11 05:50:47;;;;;;;68.75;31.00;;;11.20;99.90;;;12.54;100.00;101443.44;6102560;23;20439;-84
2021/10/11 05:53:13;;;;;;;67.45;29.92;;;11.20;99.90;;;12.49;100.00;101438.88;6079461;23;20010;-82
2021/10/11 05:55:39;;;;;;;60.80;28.27;;;11.20;99.90;;;12.53;100.00;101447.41;6102781;23;20086;-84
2021/10/11 05:58:08;;;;;;;60.10;27.77;;;11.20;99.90;;;12.52;100.00;101445.78;6077425;23;20010;-85
2021/10/11 06:00:34;;;;;;;60.15;28.48;;;11.20;99.90;;;12.53;100.00;101451.00;6079411;23;20017;-84
2021/10/11 06:03:00;;;;;;;65.68;30.77;;;11.10;99.90;;;12.49;100.00;101440.88;6105919;23;20003;-83
2021/10/11 06:05:25;;;;;;;54.85;26.42;;;11.10;99.90;;;12.53;100.00;101444.59;6079269;23;20015;-84
2021/10/11 06:07:51;;;;;;;61.05;29.88;;;11.10;99.90;;;12.54;100.00;101440.63;6079303;23;20006;-83
2021/10/11 06:10:20;;;;;;;53.92;24.85;;;11.20;99.90;;;12.53;100.00;101433.38;6105470;23;20009;-85
2021/10/11 06:12:46;;;;;;;55.55;26.98;;;11.20;99.90;;;12.53;100.00;101422.19;6110140;23;20041;-83
2021/10/11 06:15:12;;;;;;;50.50;25.55;;;11.20;99.90;;;12.54;100.00;101426.63;6093001;23;19998;-83
2021/10/11 06:17:38;;;;;;;49.70;24.25;;;11.20;99.90;;;12.57;100.00;101431.50;6082609;23;20077;-80
2021/10/11 06:20:04;;;;;;;48.25;24.25;;;11.20;99.90;;;12.61;100.00;101426.84;6107613;23;20010;-82
2021/10/11 06:22:30;;;;;;;51.80;23.23;;;11.20;99.90;;;12.60;100.00;101444.81;6108163;23;20010;-83
2021/10/11 06:24:56;;;;;;;46.20;22.58;;;11.20;99.90;;;12.62;100.00;101448.91;6110973;23;20009;-79
2021/10/11 06:27:22;;;;;;;52.53;22.83;;;11.20;99.90;;;12.59;100.00;101441.19;6085131;23;20003;-81
2021/10/11 06:29:48;;;;;;;37.80;19.95;;;11.20;99.90;;;12.64;100.00;101454.16;6110214;23;20009;-83
2021/10/11 06:32:14;;;;;;;39.70;21.17;;;11.20;99.90;;;12.65;100.00;101444.56;6109157;23;20018;-83
2021/10/11 06:34:40;;;;;;;43.30;20.75;;;11.20;99.90;;;12.68;100.00;101447.47;6108650;23;20010;-83
2021/10/11 06:37:09;;;;;;;40.17;19.75;;;11.30;99.90;;;12.72;100.00;101453.19;6111822;23;20002;-83
2021/10/11 06:39:40;;;;;;;50.03;20.00;;;11.30;99.90;;;12.66;100.00;101449.84;6081261;23;20371;-84
2021/10/11 06:42:07;;;;;;;34.75;18.23;;;11.30;99.90;;;12.75;100.00;101458.09;6080280;23;20007;-82
2021/10/11 06:44:32;;;;;;;33.78;17.60;;;11.30;99.90;;;12.76;100.00;101456.94;6101989;23;20157;-79
2021/10/11 06:47:02;;;;;;;39.35;18.23;;;11.30;99.90;;;12.82;100.00;101451.91;6101856;23;20010;-83
2021/10/11 06:49:31;;;;;;;30.90;16.83;;;11.40;99.90;;;12.82;100.00;101460.31;6101460;23;20416;-84
2021/10/11 06:52:03;;;;;;;37.05;15.80;;;11.40;99.90;;;12.77;100.00;101467.00;6077274;23;20002;-82
2021/10/11 06:54:30;;;;;;;31.05;14.75;;;11.30;99.90;;;12.81;100.00;101462.28;6076990;23;20014;-81
2021/10/11 06:56:56;;;;;;;31.77;14.73;;;11.40;99.90;;;12.85;100.00;101457.63;6102953;23;20094;-82
2021/10/11 06:59:28;;;;;;;30.65;14.93;;;11.40;99.90;;;12.85;100.00;101468.84;6102428;23;20037;-82
2021/10/11 07:01:54;;;;;;;30.67;14.43;;;11.40;99.90;;;12.89;100.00;101474.56;6101232;23;20026;-82
2021/10/11 07:04:25;;;;;;;31.67;14.20;;;11.40;99.90;;;12.89;100.00;101477.34;6100188;23;20061;-82
2021/10/11 07:06:51;;;;;;;26.25;13.27;;;11.50;99.90;;;12.91;100.00;101481.44;6076450;23;20010;-82
2021/10/11 07:09:17;;;;;;;24.83;13.13;;;11.40;99.90;;;12.93;100.00;101481.91;6103273;23;20077;-82
2021/10/11 07:11:43;;;;;;;27.70;13.90;;;11.40;99.90;;;12.89;100.00;101489.38;6103499;23;20006;-82
2021/10/11 07:14:09;;;;;;;42.20;12.23;;;11.50;99.90;;;12.92;100.00;101488.69;6104144;23;20010;-84
2021/10/11 07:16:37;;;;;;;23.33;10.40;;;11.50;99.90;;;12.87;100.00;101485.31;6101588;23;20010;-81
2021/10/11 07:19:06;;;;;;;29.45;11.45;;;11.50;99.90;;;12.91;100.00;101489.03;6103561;23;20385;-83
2021/10/11 07:21:32;;;;;;;25.90;11.00;;;11.50;99.90;;;13.00;100.00;101492.53;6104169;23;20017;-82
2021/10/11 07:23:58;;;;;;;20.70;9.43;;;11.50;99.90;;;13.07;100.00;101489.91;6077367;23;20010;-79
2021/10/11 07:26:23;;;;;;;22.58;10.27;;;11.60;99.90;;;13.08;100.00;101480.34;6103214;23;20507;-81
2021/10/11 07:28:49;;;;;;;24.50;10.00;;;11.60;99.90;;;13.17;100.00;101475.44;6076983;23;20006;-83
2021/10/11 07:31:15;;;;;;;19.55;9.57;;;11.70;99.90;;;13.35;100.00;101482.41;6103870;23;20428;-82
2021/10/11 07:33:41;;;;;;;19.80;8.98;;;11.80;99.90;;;13.50;100.00;101478.00;6103251;23;20039;-81
2021/10/11 07:36:07;;;;;;;18.33;8.35;;;11.90;99.90;;;13.54;100.00;101485.34;6075457;23;20014;-84
2021/10/11 07:38:33;;;;;;;20.98;8.77;;;12.00;99.90;;;13.60;100.00;101488.72;6077561;23;20010;-80
2021/10/11 07:40:59;;;;;;;17.40;8.05;;;12.00;99.90;;;13.61;100.00;101499.56;6107721;23;20037;-83
2021/10/11 07:43:25;;;;;;;15.93;7.72;;;12.10;99.90;;;13.67;100.00;101503.78;6104493;23;20034;-81
2021/10/11 07:45:50;;;;;;;18.05;6.90;;;12.10;99.90;;;13.67;100.00;101503.78;6080089;23;20010;-79
2021/10/11 07:48:16;;;;;;;20.80;7.47;;;12.10;99.90;;;13.64;100.00;101512.09;6109703;23;20015;-83
2021/10/11 07:50:42;;;;;;;10.70;6.40;;;12.10;99.90;;;13.69;100.00;101521.06;6082044;23;19998;-82
2021/10/11 07:53:08;;;;;;;15.25;5.88;;;12.20;99.90;;;13.69;100.00;101517.44;6109439;23;20058;-84
2021/10/11 07:55:37;;;;;;;13.80;5.90;;;12.20;99.90;;;13.73;100.00;101509.94;6109228;23;20022;-82
2021/10/11 07:58:03;;;;;;;15.40;6.13;;;12.30;99.90;;;13.78;100.00;101509.66;6079244;23;20372;-82
2021/10/11 08:00:28;;;;;;;16.58;6.78;;;12.30;99.90;;;13.66;100.00;101520.97;6106571;23;20019;-84
2021/10/11 08:02:57;;;;;;;12.60;6.03;;;12.30;99.90;;;13.73;100.00;101522.00;6103780;23;20465;-82
2021/10/11 08:05:23;;;;;;;14.55;5.55;;;12.30;99.90;;;13.79;100.00;101530.13;6106009;23;20003;-80
2021/10/11 08:07:49;;;;;;;18.63;5.70;;;12.40;99.90;;;13.75;100.00;101532.84;6105598;23;20058;-83
2021/10/11 08:10:15;;;;;;;12.95;4.88;;;12.30;99.90;;;13.86;100.00;101538.78;6106693;23;20006;-84
2021/10/11 08:12:45;;;;;;;17.30;5.25;;;12.40;99.90;;;13.93;100.00;101542.59;6104994;23;20011;-82
2021/10/11 08:15:11;;;;;;;13.27;4.43;;;12.40;99.90;;;13.89;100.00;101536.06;6101327;23;20011;-81
2021/10/11 08:17:37;;;;;;;14.57;4.90;;;12.40;99.90;;;13.99;100.00;101534.72;6076959;23;20026;-83
2021/10/11 08:20:07;;;;;;;9.07;4.28;;;12.40;99.90;;;14.02;100.00;101543.25;6101790;23;20397;-80
2021/10/11 08:22:39;;;;;;;14.95;4.28;;;12.50;99.90;;;14.08;100.00;101535.38;6076935;23;20018;-81
2021/10/11 08:25:05;;;;;;;11.85;3.75;;;12.70;99.90;;;14.16;100.00;101539.97;6103945;23;20006;-81
2021/10/11 08:27:31;;;;;;;15.65;3.45;;;12.70;99.90;;;14.29;100.00;101549.16;6118410;23;20285;-78
2021/10/11 08:29:57;;;;;;;16.95;3.28;;;12.80;99.90;;;14.41;100.00;101549.13;6109779;23;20029;-81
2021/10/11 08:32:29;;;;;;;13.57;4.07;;;12.90;99.90;;;14.57;100.00;101542.31;6113756;23;20009;-82
2021/10/11 08:34:56;;;;;;;14.18;3.47;;;13.00;99.90;;;14.78;100.00;101537.19;6103226;23;20006;-79
2021/10/11 08:37:23;;;;;;;9.73;3.63;;;13.20;99.90;;;14.91;100.00;101537.91;6102927;23;20069;-79
2021/10/11 08:39:50;;;;;;;10.82;3.78;;;13.30;99.90;;;14.92;100.00;101541.53;6103072;23;20010;-82
2021/10/11 08:42:19;;;;;;;13.07;2.83;;;13.30;99.90;;;14.73;98.51;101533.84;6101793;23;20014;-80
2021/10/11 08:44:51;;;;;;;11.63;3.47;;;13.20;99.90;;;14.58;99.27;101540.28;6102498;23;20073;-81
2021/10/11 08:47:18;;;;;;;8.52;3.05;;;13.10;99.90;;;14.43;97.66;101541.13;6103176;23;20075;-80
2021/10/11 08:49:49;;;;;;;12.43;2.90;;;13.00;99.90;;;14.25;98.43;101549.06;6101425;23;20015;-82
2021/10/11 08:52:21;;;;;;;8.52;2.75;;;12.80;99.90;;;14.12;100.00;101537.09;6103858;23;20002;-82
2021/10/11 08:54:54;;;;;;;9.68;2.40;;;12.70;99.90;;;14.05;100.00;101544.50;6078260;23;20002;-81
2021/10/11 08:57:25;;;;;;;14.70;3.58;;;12.60;99.90;;;14.02;100.00;101540.44;6078075;23;20053;-82
2021/10/11 09:00:05;;;;;;;14.75;3.55;;;12.50;99.90;;;13.98;100.00;101544.31;6078472;23;20348;-81
2021/10/11 09:02:30;;;;;;;11.77;2.80;;;12.50;99.90;;;13.90;100.00;101548.91;6101227;23;20014;-81
2021/10/11 09:04:56;;;;;;;12.63;2.72;;;12.50;99.90;;;13.87;100.00;101555.25;6101510;23;20057;-80
2021/10/11 09:07:29;;;;;;;17.23;3.38;;;12.50;99.90;;;13.69;100.00;101551.94;6078664;23;20010;-82
2021/10/11 09:10:00;;;;;;;17.58;4.55;;;12.40;99.90;;;13.72;100.00;101554.03;6104245;23;20002;-81
2021/10/11 09:12:32;;;;;;;12.52;3.50;;;12.40;99.90;;;13.72;100.00;101553.22;6104306;23;20446;-83
2021/10/11 09:15:13;;;;;;;12.88;3.53;;;12.30;99.90;;;13.72;100.00;101544.78;6078171;23;20383;-82
2021/10/11 09:17:55;;;;;;;16.17;3.90;;;12.30;99.90;;;13.78;100.00;101553.75;6075960;23;20010;-81
2021/10/11 09:20:25;;;;;;;10.05;2.80;;;12.40;99.90;;;13.88;100.00;101550.44;6075555;23;20522;-80
2021/10/11 09:22:56;;;;;;;11.23;3.28;;;12.40;99.90;;;13.96;100.00;101555.91;6103602;23;20011;-82
2021/10/11 09:25:40;;;;;;;14.48;3.83;;;12.50;99.90;;;13.99;100.00;101551.56;6077395;23;20010;-82
2021/10/11 09:28:08;;;;;;;19.85;5.00;;;12.60;99.90;;;14.07;100.00;101545.78;6104747;23;19998;-81
2021/10/11 09:30:41;;;;;;;12.95;4.25;;;12.70;99.90;;;14.23;100.00;101548.59;6101893;23;20321;-81
2021/10/11 09:33:15;;;;;;;13.95;3.50;;;12.80;99.90;;;14.24;100.00;101548.25;6104704;23;20027;-80
2021/10/11 09:35:46;;;;;;;12.10;3.13;;;12.80;99.90;;;14.35;100.00;101542.13;6077049;23;20089;-82
2021/10/11 09:38:28;;;;;;;7.80;2.95;;;12.90;99.90;;;14.50;99.92;101539.31;6106311;23;20006;-80
2021/10/11 09:40:59;;;;;;;14.90;2.60;;;13.00;99.90;;;14.49;99.22;101540.47;6107065;23;20061;-80
2021/10/11 09:43:30;;;;;;;11.52;2.88;;;13.10;99.90;;;14.56;98.40;101537.84;6081369;23;20014;-81
2021/10/11 09:46:15;;;;;;;10.70;2.65;;;13.10;99.90;;;14.73;97.54;101542.28;6080670;23;20003;-81
2021/10/11 09:48:58;;;;;;;14.80;3.67;;;13.20;99.90;;;14.78;97.65;101540.00;6077709;23;20006;-82
2021/10/11 09:51:25;;;;;;;9.90;2.72;;;13.30;99.90;;;15.07;97.22;101540.66;6105302;23;20002;-83
2021/10/11 09:53:53;;;;;;;15.05;2.75;;;13.50;99.90;;;15.37;97.20;101541.75;6079722;23;20021;-80
2021/10/11 09:56:26;;;;;;;11.50;2.70;;;13.70;99.90;;;15.22;93.34;101539.78;6076326;23;20010;-81
2021/10/11 09:58:54;;;;;;;8.55;2.30;;;13.70;99.90;;;15.12;94.49;101549.63;6078190;23;20021;-81